Time;durP1;ratioP1;P1;durP2;ratioP2;P2;SDS_P1;SDS_P2;PMS_P1;PMS_P2;Temp;Humidity;BMP_temperature;BMP_pressure;BME280_temperature;BME280_humidity;BME280_pressure;Samples;Min_cycle;Max_cycle;Signal;HPM_P1;HPM_P2
2024/03/08 06:39:00;;;;;;;46.30;20.38;;;;;;;;;;2082910;28;20585;-60
2024/03/08 11:17:08;;;;;;;29.80;13.90;;;;;;;3.07;83.01;96017.53;2107472;27;20553;-61
2024/03/08 11:21:43;;;;;;;26.52;14.00;;;;;;;3.03;83.29;96018.50;2115998;27;21072;-60
2024/03/08 11:30:15;;;;;;;26.45;14.10;;;;;;;3.00;83.59;96021.19;2083728;27;21607;-60
2024/03/08 11:32:18;;;;;;;26.63;14.82;;;;;;;2.91;83.88;96019.66;2090590;27;20571;-60
2024/03/08 11:34:16;;;;;;;26.33;14.48;;;;;;;3.33;82.38;96016.06;2081400;27;21245;-58
2024/03/08 11:35:22;;;;;;;23.92;13.18;;;;;;;3.46;81.57;96006.25;2097242;28;20346;-59
2024/03/08 11:36:25;;;;;;;28.73;16.00;;;;;;;3.45;81.78;96007.97;2085353;28;20250;-59
2024/03/08 11:37:28;;;;;;;28.48;14.20;;;;;;;3.49;80.86;96001.84;2077969;28;20210;-60
2024/03/08 11:38:33;;;;;;;25.00;13.60;;;;;;;3.47;80.72;95992.47;2074381;28;20341;-61
2024/03/08 11:39:37;;;;;;;29.20;15.73;;;;;;;3.54;81.09;95994.81;2074493;28;20218;-60
2024/03/08 11:40:39;;;;;;;30.20;15.35;;;;;;;3.88;80.32;96003.34;2082818;28;20288;-60
2024/03/08 11:41:45;;;;;;;29.35;13.20;;;;;;;4.18;79.17;95998.22;2081179;28;20198;-60
2024/03/08 11:42:51;;;;;;;27.73;12.85;;;;;;;3.85;78.54;95990.53;2079029;28;20734;-60
2024/03/08 11:44:05;;;;;;;31.02;15.45;;;;;;;3.72;79.81;95970.22;2074751;28;20235;-61
2024/03/08 11:45:11;;;;;;;28.20;15.82;;;;;;;4.65;78.43;95977.78;2074783;28;20226;-60
2024/03/08 11:46:17;;;;;;;30.88;16.70;;;;;;;4.61;77.54;95986.56;2088327;28;21192;-60
2024/03/08 11:47:20;;;;;;;24.83;14.55;;;;;;;4.80;76.30;95988.53;2094584;28;20777;-60
2024/03/08 11:48:23;;;;;;;27.95;14.45;;;;;;;5.12;75.65;95984.06;2082293;28;20202;-60
2024/03/08 11:49:25;;;;;;;24.40;13.68;;;;;;;5.49;73.55;95973.28;2077476;28;20223;-60
2024/03/08 11:50:27;;;;;;;26.60;13.20;;;;;;;5.94;73.17;95984.63;2082046;28;20199;-60
2024/03/08 11:51:30;;;;;;;27.55;14.20;;;;;;;5.51;72.89;95975.78;2087018;28;20628;-60
2024/03/08 11:52:31;;;;;;;25.17;14.30;;;;;;;5.62;73.39;95989.22;2085660;28;20250;-60
2024/03/08 11:53:33;;;;;;;25.60;14.15;;;;;;;5.26;74.61;95984.44;2077402;28;20203;-60
2024/03/08 11:54:36;;;;;;;29.02;15.18;;;;;;;4.97;74.82;95981.06;2076945;28;20295;-60
2024/03/08 11:55:37;;;;;;;29.40;15.45;;;;;;;4.93;74.85;95979.50;2079359;28;20198;-61
2024/03/08 11:56:41;;;;;;;26.15;13.82;;;;;;;4.64;75.93;95977.84;2080347;28;20204;-60
2024/03/08 11:57:43;;;;;;;28.25;14.75;;;;;;;5.25;75.54;95966.38;2080355;28;20231;-61
2024/03/08 11:58:53;;;;;;;25.50;14.40;;;;;;;5.42;74.62;95970.94;2078843;28;20238;-60
2024/03/08 12:00:06;;;;;;;24.98;14.10;;;;;;;5.30;74.71;95965.28;2079721;28;20317;-61
2024/03/08 12:01:12;;;;;;;29.88;14.80;;;;;;;5.25;74.62;95969.78;2078137;28;20236;-60
2024/03/08 12:02:13;;;;;;;22.85;13.30;;;;;;;4.90;75.60;95964.03;2079105;28;20197;-66
2024/03/08 12:03:15;;;;;;;26.08;15.15;;;;;;;5.07;76.08;95964.34;2080710;28;20200;-66
2024/03/08 12:04:17;;;;;;;28.13;14.73;;;;;;;5.31;74.88;95964.41;2079501;28;20222;-61
2024/03/08 12:05:19;;;;;;;26.42;13.95;;;;;;;5.73;73.56;95960.34;2079209;28;20204;-61
2024/03/08 12:06:21;;;;;;;25.10;14.80;;;;;;;5.75;74.56;95955.09;2080355;28;20207;-67
2024/03/08 12:07:22;;;;;;;26.00;14.20;;;;;;;6.12;73.39;95941.66;2081686;28;20199;-66
2024/03/08 12:08:24;;;;;;;29.00;14.50;;;;;;;6.58;72.17;95954.56;2073430;28;20209;-61
2024/03/08 12:09:25;;;;;;;28.27;15.30;;;;;;;6.12;72.18;95949.44;2076926;28;20228;-60
2024/03/08 12:10:28;;;;;;;42.65;16.67;;;;;;;5.98;72.62;95955.13;2079476;28;20267;-61
2024/03/08 12:11:31;;;;;;;33.38;14.75;;;;;;;6.08;72.94;95954.78;2080565;28;20208;-61
2024/03/08 12:12:35;;;;;;;26.10;14.80;;;;;;;6.91;71.44;95959.31;2077342;28;20839;-61
2024/03/08 12:13:36;;;;;;;25.70;13.80;;;;;;;6.01;71.37;95962.78;2079156;28;20620;-60
2024/03/08 12:14:38;;;;;;;25.38;13.60;;;;;;;6.26;71.59;95954.09;2079169;28;20197;-60
2024/03/08 12:15:41;;;;;;;27.35;14.45;;;;;;;6.16;71.44;95947.56;2079479;28;20597;-61
2024/03/08 12:16:42;;;;;;;26.52;14.45;;;;;;;6.72;70.75;95941.06;2079316;28;20268;-60
2024/03/08 12:17:47;;;;;;;30.33;14.55;;;;;;;6.53;71.09;95941.78;2079377;28;20213;-61
2024/03/08 12:18:51;;;;;;;25.70;14.25;;;;;;;6.38;71.39;95938.03;2077035;28;20284;-60
2024/03/08 12:19:54;;;;;;;32.78;14.65;;;;;;;7.21;70.34;95937.31;2080271;28;20667;-60
2024/03/08 12:21:08;;;;;;;28.20;14.55;;;;;;;6.34;70.46;95938.25;2079296;28;20205;-61
2024/03/08 12:22:10;;;;;;;26.08;14.90;;;;;;;6.52;71.41;95940.09;2080215;28;20600;-61
2024/03/08 12:23:15;;;;;;;43.85;15.25;;;;;;;6.34;72.06;95936.47;2079511;28;20659;-61
2024/03/08 12:24:21;;;;;;;30.13;15.85;;;;;;;6.89;72.01;95936.91;2078351;28;20684;-60
2024/03/08 12:25:26;;;;;;;32.20;14.25;;;;;;;7.33;70.74;95927.25;2081577;28;20205;-61
2024/03/08 12:26:28;;;;;;;24.83;13.68;;;;;;;6.93;70.32;95923.75;2080628;28;20190;-60
2024/03/08 12:27:29;;;;;;;27.65;14.18;;;;;;;7.05;70.40;95926.72;2076931;28;20202;-61
2024/03/08 12:28:31;;;;;;;28.42;14.07;;;;;;;6.51;70.33;95934.97;2079351;28;20275;-61
2024/03/08 12:29:32;;;;;;;28.95;13.27;;;;;;;7.71;69.68;95926.47;2075513;28;20326;-61
2024/03/08 12:30:34;;;;;;;29.98;15.73;;;;;;;7.94;67.05;95914.19;2079131;28;20662;-61
2024/03/08 12:31:36;;;;;;;26.92;14.60;;;;;;;9.36;65.74;95922.13;2079791;28;20197;-61
2024/03/08 12:32:38;;;;;;;26.13;13.00;;;;;;;9.33;64.05;95923.13;2081174;28;20665;-61
2024/03/08 12:33:54;;;;;;;27.85;14.68;;;;;;;8.43;65.45;95906.72;2078929;28;20643;-61
2024/03/08 12:34:58;;;;;;;30.98;13.25;;;;;;;7.90;66.02;95934.28;2075947;28;20206;-60
2024/03/08 12:35:59;;;;;;;27.25;13.45;;;;;;;6.82;67.85;95933.75;2080472;28;20283;-61
2024/03/08 12:37:01;;;;;;;26.00;14.60;;;;;;;8.08;66.99;95923.97;2078715;28;20289;-60
2024/03/08 12:38:02;;;;;;;23.40;12.95;;;;;;;8.52;65.43;95921.06;2081005;28;20240;-60
2024/03/08 12:39:07;;;;;;;24.10;13.27;;;;;;;8.14;65.92;95924.53;2079867;28;20217;-66
2024/03/08 12:40:09;;;;;;;29.48;13.90;;;;;;;8.59;65.58;95914.63;2078402;28;20209;-66
2024/03/08 12:41:10;;;;;;;22.05;12.93;;;;;;;9.07;64.20;95914.06;2079146;28;20332;-66
2024/03/08 12:42:12;;;;;;;24.05;13.55;;;;;;;9.57;61.95;95913.25;2079843;28;20284;-61
2024/03/08 12:43:15;;;;;;;20.88;12.18;;;;;;;9.28;61.91;95919.94;2079070;28;20197;-61
2024/03/08 12:44:17;;;;;;;22.60;13.57;;;;;;;9.56;61.89;95914.16;2077106;28;20814;-61
2024/03/08 12:45:21;;;;;;;22.45;12.68;;;;;;;8.96;62.90;95907.63;2073610;28;20290;-61
2024/03/08 12:46:26;;;;;;;26.20;15.00;;;;;;;7.64;65.09;95912.94;2076300;28;20211;-61
2024/03/08 12:47:30;;;;;;;25.17;14.50;;;;;;;9.02;64.84;95909.06;2071778;28;20223;-60
2024/03/08 12:48:40;;;;;;;23.92;13.60;;;;;;;8.60;64.82;95885.09;2070676;28;20198;-60
2024/03/08 12:49:41;;;;;;;26.30;13.43;;;;;;;9.51;62.29;95899.66;2074078;28;20240;-61
2024/03/08 12:50:45;;;;;;;26.05;13.13;;;;;;;9.56;62.91;95895.06;2077501;28;20208;-61
2024/03/08 12:51:46;;;;;;;26.77;14.30;;;;;;;10.45;61.63;95898.09;2074189;28;20197;-61
2024/03/08 12:52:49;;;;;;;26.52;13.60;;;;;;;10.75;59.90;95896.44;2071483;28;20313;-61
2024/03/08 12:53:55;;;;;;;25.55;14.48;;;;;;;10.85;60.14;95892.34;2073868;28;20225;-61
2024/03/08 12:54:57;;;;;;;20.65;13.32;;;;;;;10.81;60.17;95883.03;2074814;28;20189;-61
2024/03/08 12:55:59;;;;;;;27.90;13.73;;;;;;;10.72;60.40;95892.22;2070643;28;20209;-61
2024/03/08 12:57:00;;;;;;;25.45;13.85;;;;;;;11.34;59.23;95885.19;2074951;28;20720;-61
2024/03/08 12:58:02;;;;;;;20.92;12.35;;;;;;;11.93;57.64;95872.88;2073726;28;20218;-62
2024/03/08 12:59:08;;;;;;;24.52;12.60;;;;;;;12.56;56.24;95881.13;2072247;28;20238;-61
2024/03/08 13:00:13;;;;;;;24.70;13.15;;;;;;;11.88;55.54;95880.16;2072110;28;20590;-62
2024/03/08 13:01:15;;;;;;;28.55;13.50;;;;;;;10.80;58.04;95881.34;2074841;28;20291;-62
2024/03/08 13:02:16;;;;;;;23.50;13.75;;;;;;;10.55;59.72;95872.31;2073841;28;20203;-61
2024/03/08 13:03:17;;;;;;;25.63;13.85;;;;;;;10.48;59.14;95881.41;2073272;28;20208;-62
2024/03/08 13:04:21;;;;;;;20.85;13.80;;;;;;;10.12;59.74;95867.69;2070252;28;20293;-67
2024/03/08 13:05:23;;;;;;;23.17;12.60;;;;;;;10.66;59.76;95866.47;2074066;28;20612;-68
2024/03/08 13:06:24;;;;;;;23.50;12.45;;;;;;;10.48;59.88;95857.09;2067780;28;20259;-67
2024/03/08 13:07:26;;;;;;;40.20;13.60;;;;;;;10.38;58.98;95872.44;2067524;28;20868;-67
2024/03/08 13:08:29;;;;;;;24.70;12.65;;;;;;;10.00;60.26;95859.72;2068144;28;20614;-67
2024/03/08 13:09:31;;;;;;;25.42;13.30;;;;;;;9.46;61.33;95858.22;2073677;28;20232;-67
2024/03/08 13:10:33;;;;;;;27.00;13.93;;;;;;;9.46;61.84;95866.88;2070860;28;20205;-67
2024/03/08 13:11:36;;;;;;;23.58;13.45;;;;;;;11.18;59.49;95859.97;2067768;28;20213;-67
2024/03/08 13:12:38;;;;;;;30.13;13.32;;;;;;;9.89;60.34;95850.72;2068250;28;20195;-67
2024/03/08 13:13:40;;;;;;;25.65;13.75;;;;;;;10.69;60.72;95855.00;2071906;28;20245;-65
2024/03/08 13:14:42;;;;;;;32.13;14.05;;;;;;;10.85;59.65;95840.13;2071888;28;20208;-65
2024/03/08 13:15:44;;;;;;;57.15;24.60;;;;;;;12.12;58.15;95847.34;2075558;28;20250;-66
2024/03/08 13:16:48;;;;;;;48.45;21.80;;;;;;;12.49;55.62;95851.03;2073685;28;20204;-68
2024/03/08 13:17:50;;;;;;;23.83;13.90;;;;;;;10.38;58.89;95854.16;2074802;28;20210;-61
2024/03/08 13:18:52;;;;;;;27.90;14.00;;;;;;;10.26;58.47;95822.56;2072794;28;20696;-60
2024/03/08 13:19:57;;;;;;;28.23;13.20;;;;;;;11.71;58.41;95843.75;2072789;28;20210;-61
2024/03/08 13:20:59;;;;;;;32.78;13.00;;;;;;;13.02;55.93;95845.81;2075666;28;20211;-61
2024/03/08 13:22:00;;;;;;;29.83;13.05;;;;;;;9.74;59.83;95843.72;2077509;28;20225;-61
2024/03/08 13:23:02;;;;;;;29.65;13.40;;;;;;;9.96;60.93;95843.38;2076685;28;20204;-60
2024/03/08 13:24:04;;;;;;;24.75;14.20;;;;;;;9.44;61.22;95844.44;2073092;28;20728;-61
2024/03/08 13:25:05;;;;;;;24.52;12.85;;;;;;;8.86;62.30;95835.25;2075143;28;20683;-60
2024/03/08 13:26:08;;;;;;;26.48;14.35;;;;;;;8.51;63.96;95843.91;2074540;28;20233;-60
2024/03/08 13:27:25;;;;;;;24.40;14.20;;;;;;;9.83;62.17;95839.75;2075486;28;20229;-60
2024/03/08 13:28:29;;;;;;;22.75;12.00;;;;;;;10.88;58.99;95834.75;2072321;28;20328;-60
2024/03/08 13:29:33;;;;;;;21.63;12.68;;;;;;;11.26;58.44;95825.53;2067772;28;20235;-61
2024/03/08 13:30:35;;;;;;;32.05;14.70;;;;;;;11.95;57.31;95822.19;2064339;28;21000;-61
2024/03/08 13:31:37;;;;;;;33.65;15.95;;;;;;;12.76;55.66;95829.25;2067194;28;20227;-61
2024/03/08 13:32:40;;;;;;;33.70;15.10;;;;;;;13.03;55.03;95828.31;2061270;28;20214;-61
2024/03/08 13:33:46;;;;;;;25.65;13.95;;;;;;;11.48;56.44;95821.59;2065005;28;20718;-61
2024/03/08 13:34:48;;;;;;;29.05;14.40;;;;;;;9.99;58.61;95837.16;2063594;28;20219;-61
2024/03/08 13:35:50;;;;;;;25.33;15.00;;;;;;;10.45;59.64;95821.56;2066146;28;20207;-61
2024/03/08 13:36:54;;;;;;;22.70;13.43;;;;;;;10.07;60.18;95830.59;2065167;28;20609;-60
2024/03/08 13:37:56;;;;;;;21.77;12.27;;;;;;;11.36;57.37;95821.41;2064396;28;20207;-60
2024/03/08 13:38:59;;;;;;;23.30;14.35;;;;;;;10.69;58.68;95819.31;2064667;28;20225;-61
2024/03/08 13:40:01;;;;;;;25.80;14.18;;;;;;;11.65;57.94;95808.34;2066745;28;20233;-61
2024/03/08 13:41:02;;;;;;;30.45;14.00;;;;;;;10.59;58.73;95819.00;2067357;28;20199;-61
2024/03/08 13:42:09;;;;;;;24.85;13.82;;;;;;;10.90;58.64;95819.78;2066552;28;20213;-61
2024/03/08 13:43:10;;;;;;;27.73;14.68;;;;;;;10.47;59.14;95824.09;2066057;28;20201;-61
2024/03/08 13:44:12;;;;;;;34.33;14.85;;;;;;;11.71;57.34;95807.13;2065714;28;20254;-60
2024/03/08 13:45:17;;;;;;;30.02;15.98;;;;;;;12.05;56.59;95816.31;2066028;28;20203;-61
2024/03/08 13:46:19;;;;;;;27.20;14.25;;;;;;;12.61;54.60;95806.66;2063651;28;20389;-61
2024/03/08 13:47:20;;;;;;;30.17;15.10;;;;;;;10.15;57.64;95811.06;2065470;28;20194;-61
2024/03/08 13:48:22;;;;;;;30.58;14.82;;;;;;;10.34;59.77;95816.91;2065520;28;20205;-60
2024/03/08 13:49:25;;;;;;;28.45;14.35;;;;;;;9.95;60.73;95818.22;2064216;28;20593;-61
2024/03/08 13:50:27;;;;;;;25.17;13.63;;;;;;;8.95;62.06;95820.00;2064472;28;20203;-60
2024/03/08 13:51:30;;;;;;;26.55;13.90;;;;;;;8.72;63.09;95809.91;2066040;28;20202;-60
2024/03/08 13:52:32;;;;;;;28.00;14.55;;;;;;;9.75;62.20;95806.28;2064630;28;20195;-60
2024/03/08 13:53:34;;;;;;;26.23;13.90;;;;;;;9.73;59.91;95806.38;2064141;28;20247;-61
2024/03/08 13:54:38;;;;;;;34.13;15.65;;;;;;;9.86;60.58;95803.91;2064820;28;20241;-60
2024/03/08 13:55:40;;;;;;;34.05;16.40;;;;;;;11.64;58.40;95797.97;2065667;28;20348;-61
2024/03/08 13:56:43;;;;;;;36.45;15.32;;;;;;;12.73;55.93;95801.47;2062589;28;20743;-61
2024/03/08 13:57:46;;;;;;;27.20;13.43;;;;;;;13.01;54.53;95790.88;2063730;28;20717;-61
2024/03/08 13:58:47;;;;;;;30.55;15.75;;;;;;;10.80;56.75;95795.16;2063158;28;20203;-61
2024/03/08 13:59:52;;;;;;;28.80;16.10;;;;;;;10.44;57.94;95797.22;2062819;28;20206;-60
2024/03/08 14:00:53;;;;;;;32.78;14.95;;;;;;;11.42;57.62;95789.69;2063350;28;20284;-61
2024/03/08 14:01:56;;;;;;;28.15;14.95;;;;;;;12.08;57.05;95789.13;2064440;28;20198;-61
2024/03/08 14:02:58;;;;;;;28.42;14.45;;;;;;;13.07;54.60;95778.19;2069281;28;20570;-62
2024/03/08 14:04:00;;;;;;;26.38;14.85;;;;;;;13.44;52.80;95772.22;2062381;28;20748;-62
2024/03/08 14:05:01;;;;;;;26.73;13.80;;;;;;;10.81;55.43;95791.63;2060446;28;20229;-60
2024/03/08 14:06:03;;;;;;;28.55;15.18;;;;;;;10.56;58.02;95798.28;2059538;28;20608;-61
2024/03/08 14:07:08;;;;;;;26.08;15.10;;;;;;;10.01;58.52;95799.63;2066510;28;20729;-60
2024/03/08 14:08:11;;;;;;;38.72;14.52;;;;;;;9.67;60.01;95795.44;2064002;28;20279;-61
2024/03/08 14:09:18;;;;;;;24.40;12.82;;;;;;;9.34;59.33;95798.94;2059876;28;20228;-60
2024/03/08 14:10:22;;;;;;;30.70;14.48;;;;;;;8.84;60.76;95798.91;2062006;28;20735;-60
2024/03/08 14:11:24;;;;;;;27.25;13.43;;;;;;;8.58;62.17;95803.66;2060667;28;20204;-60
2024/03/08 14:12:26;;;;;;;31.15;14.65;;;;;;;9.13;62.09;95802.59;2065532;28;20211;-60
2024/03/08 14:13:27;;;;;;;27.63;15.73;;;;;;;9.12;62.08;95802.69;2065854;28;20230;-60
2024/03/08 14:14:29;;;;;;;28.13;15.50;;;;;;;10.11;60.40;95798.19;2063439;28;20223;-60
2024/03/08 14:15:31;;;;;;;26.48;15.18;;;;;;;10.80;59.25;95787.31;2061922;28;20270;-60
2024/03/08 14:16:33;;;;;;;31.67;15.70;;;;;;;11.35;56.59;95790.16;2065918;28;20214;-60
2024/03/08 14:17:35;;;;;;;28.45;14.40;;;;;;;9.70;58.94;95793.50;2066561;28;20200;-60
2024/03/08 14:18:37;;;;;;;25.77;14.52;;;;;;;10.57;59.12;95788.69;2067668;28;20206;-61
2024/03/08 14:19:39;;;;;;;35.42;15.52;;;;;;;10.82;57.65;95788.09;2062117;28;20688;-61
2024/03/08 14:20:41;;;;;;;32.90;14.30;;;;;;;10.27;57.95;95794.69;2063148;28;20204;-61
2024/03/08 14:21:43;;;;;;;23.33;13.40;;;;;;;9.89;58.40;95797.69;2066950;28;20198;-60
2024/03/08 14:22:46;;;;;;;34.67;14.65;;;;;;;10.29;58.73;95780.63;2064326;28;20236;-61
2024/03/08 14:23:48;;;;;;;31.95;15.25;;;;;;;10.19;59.21;95781.25;2063897;28;20203;-61
2024/03/08 14:24:51;;;;;;;27.52;14.00;;;;;;;11.08;57.99;95789.16;2063419;28;20779;-61
2024/03/08 14:25:53;;;;;;;26.55;14.70;;;;;;;10.33;59.04;95783.91;2063477;28;20231;-60
2024/03/08 14:26:55;;;;;;;32.67;14.23;;;;;;;10.33;59.04;95783.91;2066763;28;20198;-61
2024/03/08 14:28:03;;;;;;;31.90;14.35;;;;;;;11.05;57.32;95781.47;2063527;28;20315;-63
2024/03/08 14:29:05;;;;;;;26.92;14.90;;;;;;;10.03;58.44;95782.13;2063897;28;20638;-59
2024/03/08 14:30:10;;;;;;;27.27;14.20;;;;;;;10.12;59.32;95770.34;2065221;28;20844;-61
2024/03/08 14:31:12;;;;;;;28.40;14.43;;;;;;;10.59;57.76;95772.00;2058769;28;20217;-60
2024/03/08 14:32:13;;;;;;;29.23;13.82;;;;;;;10.64;58.90;95765.66;2059199;28;20232;-60
2024/03/08 14:33:16;;;;;;;31.83;14.32;;;;;;;12.23;56.36;95761.13;2062766;28;20211;-61
2024/03/08 14:34:17;;;;;;;34.42;13.85;;;;;;;12.72;54.59;95767.50;2062898;28;20228;-61
2024/03/08 14:35:20;;;;;;;30.52;15.18;;;;;;;12.34;54.21;95757.78;2066260;28;20211;-61
2024/03/08 14:36:22;;;;;;;28.45;14.52;;;;;;;11.93;55.69;95756.91;2063724;28;20202;-61
2024/03/08 14:37:28;;;;;;;25.45;13.10;;;;;;;10.34;57.76;95754.28;2062231;28;20344;-61
2024/03/08 14:38:29;;;;;;;31.23;15.43;;;;;;;9.93;59.96;95768.75;2066249;28;20207;-62
2024/03/08 14:39:33;;;;;;;28.02;13.75;;;;;;;9.90;59.92;95755.03;2066049;28;20248;-60
2024/03/08 14:40:36;;;;;;;31.40;16.20;;;;;;;10.83;59.40;95758.44;2063092;28;20281;-61
2024/03/08 14:41:37;;;;;;;31.88;14.57;;;;;;;12.14;56.65;95757.31;2066183;28;20707;-60
2024/03/08 14:42:42;;;;;;;35.65;13.30;;;;;;;12.30;55.54;95754.53;2057670;28;20294;-61
2024/03/08 14:43:47;;;;;;;25.27;13.73;;;;;;;11.66;55.70;95733.34;2060693;28;20255;-61
2024/03/08 14:44:51;;;;;;;28.05;14.25;;;;;;;11.51;55.67;95746.44;2062724;28;20225;-61
2024/03/08 14:45:52;;;;;;;29.33;14.30;;;;;;;11.88;55.25;95736.28;2064102;28;20261;-61
2024/03/08 14:46:56;;;;;;;30.02;14.43;;;;;;;11.01;56.87;95739.94;2061126;28;20206;-61
2024/03/08 14:47:57;;;;;;;29.27;13.70;;;;;;;12.63;54.73;95729.66;2064416;28;20299;-61
2024/03/08 14:48:59;;;;;;;26.77;13.82;;;;;;;12.29;53.53;95737.16;2063602;28;20253;-60
2024/03/08 14:50:00;;;;;;;28.95;13.30;;;;;;;10.34;56.68;95741.25;2065606;28;20234;-60
2024/03/08 14:51:03;;;;;;;30.65;15.90;;;;;;;11.67;56.15;95732.41;2066050;28;20206;-61
2024/03/08 14:52:26;;;;;;;36.75;13.90;;;;;;;12.87;54.10;95728.94;2062525;28;20210;-61
2024/03/08 14:53:27;;;;;;;29.38;14.32;;;;;;;13.91;51.35;95730.44;2061735;28;20234;-61
2024/03/08 14:54:29;;;;;;;25.23;13.63;;;;;;;14.33;52.22;95725.59;2060218;28;20226;-61
2024/03/08 14:55:30;;;;;;;26.70;14.32;;;;;;;14.55;49.92;95718.75;2059645;28;20219;-62
2024/03/08 14:56:33;;;;;;;24.98;14.15;;;;;;;14.50;50.18;95724.34;2065993;28;20263;-61
2024/03/08 14:57:35;;;;;;;25.58;13.43;;;;;;;12.99;52.59;95738.59;2062432;28;20203;-61
2024/03/08 14:58:37;;;;;;;24.83;14.52;;;;;;;11.06;55.05;95730.09;2060569;28;20207;-61
2024/03/08 14:59:39;;;;;;;24.75;13.77;;;;;;;12.35;54.47;95733.28;2065438;28;20235;-66
2024/03/08 15:00:41;;;;;;;24.02;13.65;;;;;;;12.87;53.47;95723.69;2065002;28;20228;-66
2024/03/08 15:01:44;;;;;;;24.52;14.38;;;;;;;12.18;52.95;95716.09;2056389;28;20627;-68
2024/03/08 15:02:46;;;;;;;29.60;15.30;;;;;;;11.15;55.41;95721.66;2059641;28;20922;-66
2024/03/08 15:03:49;;;;;;;23.42;12.75;;;;;;;10.96;55.83;95719.34;2064376;28;20234;-66
2024/03/08 15:04:56;;;;;;;24.80;13.23;;;;;;;10.64;56.61;95731.72;2054426;28;20207;-65
2024/03/08 15:05:59;;;;;;;26.35;13.77;;;;;;;10.52;57.50;95730.69;2059368;28;20195;-66
2024/03/08 15:07:01;;;;;;;28.42;15.27;;;;;;;9.75;59.00;95726.31;2062962;28;20201;-65
2024/03/08 15:08:09;;;;;;;25.38;13.52;;;;;;;9.68;58.83;95721.53;2054714;28;20202;-65
2024/03/08 15:09:16;;;;;;;29.98;14.80;;;;;;;9.16;59.67;95720.84;2055664;28;20284;-65
2024/03/08 15:10:20;;;;;;;36.75;14.60;;;;;;;8.95;60.28;95715.00;2066636;28;20203;-66
2024/03/08 15:11:24;;;;;;;30.40;13.88;;;;;;;9.20;60.24;95716.31;2064073;28;20192;-65
2024/03/08 15:12:28;;;;;;;29.83;15.98;;;;;;;9.15;60.29;95716.53;2063224;28;20200;-65
2024/03/08 15:13:41;;;;;;;34.67;16.67;;;;;;;9.06;60.67;95704.84;2062982;28;20282;-64
2024/03/08 15:14:43;;;;;;;29.75;15.60;;;;;;;9.00;61.56;95713.00;2060934;28;20291;-65
2024/03/08 15:15:45;;;;;;;32.92;15.90;;;;;;;9.61;60.23;95703.63;2061281;28;20595;-66
2024/03/08 15:16:49;;;;;;;32.42;16.55;;;;;;;9.07;61.61;95721.34;2063984;28;20211;-65
2024/03/08 15:17:54;;;;;;;29.58;14.68;;;;;;;9.81;60.33;95712.06;2065890;28;20202;-66
2024/03/08 15:18:55;;;;;;;26.48;13.50;;;;;;;10.11;58.41;95711.25;2062323;28;20778;-66
2024/03/08 15:19:57;;;;;;;28.83;14.98;;;;;;;9.71;59.59;95703.91;2061491;28;20207;-66
2024/03/08 15:20:58;;;;;;;31.95;15.10;;;;;;;10.00;58.98;95709.25;2060652;28;20244;-65
2024/03/08 15:22:00;;;;;;;24.40;13.52;;;;;;;9.50;59.44;95708.59;2060496;28;20820;-65
2024/03/08 15:23:03;;;;;;;35.28;15.20;;;;;;;9.66;59.96;95713.78;2063204;28;20205;-66
2024/03/08 15:24:09;;;;;;;30.55;14.25;;;;;;;9.66;59.96;95713.78;2062378;28;20223;-65
2024/03/08 15:25:14;;;;;;;25.23;14.05;;;;;;;9.86;58.75;95707.44;2064308;28;20228;-65
2024/03/08 15:26:16;;;;;;;22.90;13.02;;;;;;;9.48;59.37;95706.06;2066913;28;20190;-65
2024/03/08 15:27:18;;;;;;;33.97;14.27;;;;;;;9.87;58.98;95692.66;2060724;28;20265;-66
2024/03/08 15:28:26;;;;;;;27.92;13.90;;;;;;;9.40;58.47;95707.41;2065059;28;20200;-65
2024/03/08 15:29:29;;;;;;;21.20;12.27;;;;;;;9.02;59.64;95689.50;2064712;28;20253;-65
2024/03/08 15:30:33;;;;;;;28.15;13.38;;;;;;;9.06;60.01;95704.03;2065769;28;20265;-65
2024/03/08 15:31:34;;;;;;;25.50;12.85;;;;;;;8.99;60.28;95701.75;2065155;28;20202;-66
2024/03/08 15:32:37;;;;;;;24.45;12.90;;;;;;;9.62;58.86;95692.28;2064174;28;20267;-65
2024/03/08 15:33:52;;;;;;;28.42;13.48;;;;;;;10.05;58.17;95701.19;2065348;28;20301;-66
2024/03/08 15:34:54;;;;;;;21.80;11.32;;;;;;;10.08;57.74;95693.16;2067722;28;20258;-66
2024/03/08 15:36:00;;;;;;;28.50;13.63;;;;;;;10.58;57.64;95691.16;2056967;28;20869;-65
2024/03/08 15:37:03;;;;;;;29.73;13.90;;;;;;;10.26;56.97;95684.28;2061923;28;20210;-66
2024/03/08 15:38:05;;;;;;;25.17;13.25;;;;;;;10.78;56.70;95684.75;2063628;28;20254;-66
2024/03/08 15:39:09;;;;;;;27.52;15.18;;;;;;;10.63;55.70;95683.91;2058937;28;20228;-65
2024/03/08 15:40:22;;;;;;;30.65;13.50;;;;;;;10.47;56.46;95681.34;2064010;28;20755;-66
2024/03/08 15:41:26;;;;;;;30.90;13.48;;;;;;;10.82;55.82;95667.94;2068630;28;20646;-66
2024/03/08 15:42:29;;;;;;;27.23;14.75;;;;;;;11.28;55.45;95674.72;2066319;28;20195;-66
2024/03/08 15:43:34;;;;;;;28.73;15.35;;;;;;;11.06;55.06;95664.78;2065065;28;20200;-66
2024/03/08 15:44:41;;;;;;;28.50;13.52;;;;;;;11.14;56.22;95674.75;2073359;28;20231;-66
2024/03/08 15:45:44;;;;;;;26.08;13.27;;;;;;;10.62;56.51;95675.22;2074180;28;20206;-66
2024/03/08 15:46:46;;;;;;;26.90;13.55;;;;;;;9.75;56.90;95679.38;2072581;28;20644;-65
2024/03/08 15:47:48;;;;;;;27.63;14.57;;;;;;;10.33;57.23;95676.91;2071919;28;20699;-66
2024/03/08 15:48:51;;;;;;;27.67;13.60;;;;;;;9.47;58.09;95664.44;2069918;28;20215;-66
2024/03/08 15:49:53;;;;;;;30.27;15.27;;;;;;;9.44;59.15;95675.88;2071747;28;20198;-65
2024/03/08 15:50:54;;;;;;;28.45;14.20;;;;;;;9.43;59.06;95671.59;2069737;28;20203;-65
2024/03/08 15:51:56;;;;;;;26.08;14.35;;;;;;;9.57;59.14;95673.44;2069561;28;20249;-65
2024/03/08 15:52:59;;;;;;;29.65;12.82;;;;;;;9.99;58.98;95671.06;2070141;28;20227;-66
2024/03/08 15:54:04;;;;;;;28.40;14.35;;;;;;;10.35;57.67;95675.06;2072019;28;20399;-66
2024/03/08 15:55:07;;;;;;;23.77;12.90;;;;;;;9.93;58.69;95667.06;2073080;28;20212;-65
2024/03/08 15:56:09;;;;;;;35.35;15.43;;;;;;;10.07;58.45;95673.25;2073741;28;20206;-66
2024/03/08 15:57:14;;;;;;;31.83;14.15;;;;;;;9.58;59.17;95675.09;2072739;28;20199;-66
2024/03/08 15:58:15;;;;;;;28.60;15.15;;;;;;;9.93;58.77;95667.06;2073226;28;20234;-66
2024/03/08 15:59:17;;;;;;;27.50;13.55;;;;;;;9.91;58.69;95681.94;2071563;28;20288;-65
2024/03/08 16:00:45;;;;;;;28.45;14.88;;;;;;;10.02;58.22;95651.78;2071863;28;20208;-66
2024/03/08 16:01:50;;;;;;;29.70;16.38;;;;;;;10.34;57.61;95662.94;2072807;28;20225;-65
2024/03/08 16:02:53;;;;;;;34.80;15.18;;;;;;;10.48;57.37;95663.94;2073771;28;20304;-66
2024/03/08 16:03:54;;;;;;;28.40;15.35;;;;;;;10.73;57.74;95660.69;2072463;28;20228;-66
2024/03/08 16:04:56;;;;;;;27.75;15.57;;;;;;;10.94;56.95;95661.97;2072154;28;20196;-66
2024/03/08 16:05:58;;;;;;;26.55;14.05;;;;;;;10.95;56.69;95653.19;2070774;28;20202;-66
2024/03/08 16:07:00;;;;;;;25.25;13.30;;;;;;;10.82;57.05;95654.91;2071227;28;20202;-66
2024/03/08 16:08:02;;;;;;;31.83;14.80;;;;;;;10.70;57.58;95655.63;2073078;28;20655;-66
2024/03/08 16:09:04;;;;;;;31.00;15.15;;;;;;;11.23;56.68;95654.06;2071988;28;20251;-66
2024/03/08 16:10:06;;;;;;;26.70;15.10;;;;;;;11.80;55.88;95656.63;2070515;28;20289;-66
2024/03/08 16:11:10;;;;;;;32.35;14.57;;;;;;;12.17;54.56;95631.50;2075975;28;20251;-66
2024/03/08 16:12:12;;;;;;;31.45;15.98;;;;;;;11.26;55.76;95646.06;2073957;28;20301;-66
2024/03/08 16:13:15;;;;;;;27.80;14.10;;;;;;;11.15;55.96;95652.88;2075467;28;20208;-66
2024/03/08 16:14:20;;;;;;;27.98;14.50;;;;;;;10.54;57.02;95655.72;2069812;28;20316;-66
2024/03/08 16:15:21;;;;;;;31.02;15.02;;;;;;;10.03;57.82;95643.91;2069976;28;20205;-66
2024/03/08 16:16:23;;;;;;;29.55;14.68;;;;;;;9.74;59.82;95643.81;2071074;28;20221;-66
2024/03/08 16:17:24;;;;;;;32.58;14.90;;;;;;;9.82;59.45;95645.13;2071136;28;20201;-66
2024/03/08 16:18:26;;;;;;;30.65;15.27;;;;;;;9.45;60.30;95648.06;2072900;28;20200;-66
2024/03/08 16:19:28;;;;;;;29.80;14.23;;;;;;;9.60;59.92;95641.16;2070258;28;20318;-66
2024/03/08 16:20:31;;;;;;;31.05;15.00;;;;;;;9.74;60.04;95635.97;2072483;28;20699;-66
2024/03/08 16:21:34;;;;;;;27.08;14.65;;;;;;;10.24;59.29;95631.34;2073979;28;20637;-66